sensor_id;sensor_type;location;lat;lon;timestamp;temperature;humidity
7216;DHT22;3649;48.798;9.798;2023-10-09T00:02:10;17.20;99.90
7216;DHT22;3649;48.798;9.798;2023-10-09T00:04:38;17.10;99.90
7216;DHT22;3649;48.798;9.798;2023-10-09T00:07:11;17.10;99.90
7216;DHT22;3649;48.798;9.798;2023-10-09T00:09:39;17.10;99.90
7216;DHT22;3649;48.798;9.798;2023-10-09T00:12:20;17.10;99.90
7216;DHT22;3649;48.798;9.798;2023-10-09T00:14:51;17.10;99.90
7216;DHT22;3649;48.798;9.798;2023-10-09T00:17:23;17.10;99.90
7216;DHT22;3649;48.798;9.798;2023-10-09T00:19:50;17.00;99.90
7216;DHT22;3649;48.798;9.798;2023-10-09T00:22:26;17.00;99.90
7216;DHT22;3649;48.798;9.798;2023-10-09T00:24:57;17.00;99.90
7216;DHT22;3649;48.798;9.798;2023-10-09T00:27:38;17.00;99.90
7216;DHT22;3649;48.798;9.798;2023-10-09T00:30:10;16.90;99.90
7216;DHT22;3649;48.798;9.798;2023-10-09T00:32:42;16.90;99.90
7216;DHT22;3649;48.798;9.798;2023-10-09T00:35:18;16.90;99.90
7216;DHT22;3649;48.798;9.798;2023-10-09T00:38:04;16.90;99.90
7216;DHT22;3649;48.798;9.798;2023-10-09T00:40:47;16.80;99.90
7216;DHT22;3649;48.798;9.798;2023-10-09T00:43:23;16.70;99.90
7216;DHT22;3649;48.798;9.798;2023-10-09T00:45:56;16.80;99.90
7216;DHT22;3649;48.798;9.798;2023-10-09T00:48:30;16.80;99.90
7216;DHT22;3649;48.798;9.798;2023-10-09T00:51:07;16.70;99.90
7216;DHT22;3649;48.798;9.798;2023-10-09T00:53:56;16.70;99.90
7216;DHT22;3649;48.798;9.798;2023-10-09T00:56:34;16.70;99.90
7216;DHT22;3649;48.798;9.798;2023-10-09T00:59:15;16.70;99.90
7216;DHT22;3649;48.798;9.798;2023-10-09T01:01:43;16.70;99.90
7216;DHT22;3649;48.798;9.798;2023-10-09T01:04:31;16.70;99.90
7216;DHT22;3649;48.798;9.798;2023-10-09T01:07:04;16.80;99.90
7216;DHT22;3649;48.798;9.798;2023-10-09T01:09:52;16.70;99.90
7216;DHT22;3649;48.798;9.798;2023-10-09T01:12:22;16.70;99.90
7216;DHT22;3649;48.798;9.798;2023-10-09T01:14:49;16.70;99.90
7216;DHT22;3649;48.798;9.798;2023-10-09T01:17:22;16.70;99.90
7216;DHT22;3649;48.798;9.798;2023-10-09T01:20:12;16.60;99.90
7216;DHT22;3649;48.798;9.798;2023-10-09T01:22:43;16.50;99.90
7216;DHT22;3649;48.798;9.798;2023-10-09T01:25:10;16.60;99.90
7216;DHT22;3649;48.798;9.798;2023-10-09T01:27:37;16.60;99.90
7216;DHT22;3649;48.798;9.798;2023-10-09T01:30:07;16.60;99.90
7216;DHT22;3649;48.798;9.798;2023-10-09T01:32:41;16.60;99.90
7216;DHT22;3649;48.798;9.798;2023-10-09T01:35:10;16.60;99.90
7216;DHT22;3649;48.798;9.798;2023-10-09T01:37:46;16.60;99.90
7216;DHT22;3649;48.798;9.798;2023-10-09T01:40:18;16.50;99.90
7216;DHT22;3649;48.798;9.798;2023-10-09T01:43:04;16.50;99.90
7216;DHT22;3649;48.798;9.798;2023-10-09T01:45:31;16.50;99.90
7216;DHT22;3649;48.798;9.798;2023-10-09T01:48:09;16.50;99.90
7216;DHT22;3649;48.798;9.798;2023-10-09T01:50:37;16.50;99.90
7216;DHT22;3649;48.798;9.798;2023-10-09T01:53:09;16.50;99.90
7216;DHT22;3649;48.798;9.798;2023-10-09T01:55:36;16.60;99.90
7216;DHT22;3649;48.798;9.798;2023-10-09T01:58:08;16.50;99.90
7216;DHT22;3649;48.798;9.798;2023-10-09T02:00:54;16.50;99.90
7216;DHT22;3649;48.798;9.798;2023-10-09T02:03:22;16.50;99.90
7216;DHT22;3649;48.798;9.798;2023-10-09T02:05:56;16.40;99.90
7216;DHT22;3649;48.798;9.798;2023-10-09T02:08:27;16.60;99.90
7216;DHT22;3649;48.798;9.798;2023-10-09T02:10:54;16.60;99.90
7216;DHT22;3649;48.798;9.798;2023-10-09T02:13:24;16.60;99.90
7216;DHT22;3649;48.798;9.798;2023-10-09T02:15:56;16.60;99.90
7216;DHT22;3649;48.798;9.798;2023-10-09T02:18:40;16.60;99.90
7216;DHT22;3649;48.798;9.798;2023-10-09T02:21:20;16.60;99.90
7216;DHT22;3649;48.798;9.798;2023-10-09T02:24:06;16.60;99.90
7216;DHT22;3649;48.798;9.798;2023-10-09T02:26:36;16.60;99.90
7216;DHT22;3649;48.798;9.798;2023-10-09T02:29:06;16.60;99.90
7216;DHT22;3649;48.798;9.798;2023-10-09T02:31:32;16.60;99.90
7216;DHT22;3649;48.798;9.798;2023-10-09T02:34:07;16.60;99.90
7216;DHT22;3649;48.798;9.798;2023-10-09T02:36:38;16.60;99.90
7216;DHT22;3649;48.798;9.798;2023-10-09T02:39:09;16.60;99.90
7216;DHT22;3649;48.798;9.798;2023-10-09T02:41:54;16.50;99.90
7216;DHT22;3649;48.798;9.798;2023-10-09T02:44:28;16.50;99.90
7216;DHT22;3649;48.798;9.798;2023-10-09T02:47:06;16.60;99.90
7216;DHT22;3649;48.798;9.798;2023-10-09T02:49:45;16.60;99.90
7216;DHT22;3649;48.798;9.798;2023-10-09T02:52:15;16.60;99.90
7216;DHT22;3649;48.798;9.798;2023-10-09T02:54:46;16.60;99.90
7216;DHT22;3649;48.798;9.798;2023-10-09T02:57:19;16.60;99.90
7216;DHT22;3649;48.798;9.798;2023-10-09T02:59:50;16.60;99.90
7216;DHT22;3649;48.798;9.798;2023-10-09T03:02:18;16.50;99.90
7216;DHT22;3649;48.798;9.798;2023-10-09T03:04:45;16.50;99.90
7216;DHT22;3649;48.798;9.798;2023-10-09T03:07:13;16.50;99.90
7216;DHT22;3649;48.798;9.798;2023-10-09T03:09:41;16.50;99.90
7216;DHT22;3649;48.798;9.798;2023-10-09T03:12:08;16.60;99.90
7216;DHT22;3649;48.798;9.798;2023-10-09T03:14:40;16.60;99.90
7216;DHT22;3649;48.798;9.798;2023-10-09T03:17:08;16.60;99.90
7216;DHT22;3649;48.798;9.798;2023-10-09T03:19:39;16.50;99.90
7216;DHT22;3649;48.798;9.798;2023-10-09T03:22:07;16.60;99.90
7216;DHT22;3649;48.798;9.798;2023-10-09T03:24:41;16.60;99.90
7216;DHT22;3649;48.798;9.798;2023-10-09T03:27:17;16.50;99.90
7216;DHT22;3649;48.798;9.798;2023-10-09T03:29:44;16.60;99.90
7216;DHT22;3649;48.798;9.798;2023-10-09T03:32:16;16.60;99.90
7216;DHT22;3649;48.798;9.798;2023-10-09T03:34:43;16.50;99.90
7216;DHT22;3649;48.798;9.798;2023-10-09T03:37:11;16.60;99.90
7216;DHT22;3649;48.798;9.798;2023-10-09T03:39:49;16.60;99.90
7216;DHT22;3649;48.798;9.798;2023-10-09T03:42:22;16.60;99.90
7216;DHT22;3649;48.798;9.798;2023-10-09T03:44:49;16.50;99.90
7216;DHT22;3649;48.798;9.798;2023-10-09T03:47:20;16.60;99.90
7216;DHT22;3649;48.798;9.798;2023-10-09T03:49:51;16.60;99.90
7216;DHT22;3649;48.798;9.798;2023-10-09T03:52:20;16.60;99.90
7216;DHT22;3649;48.798;9.798;2023-10-09T03:54:50;16.60;99.90
7216;DHT22;3649;48.798;9.798;2023-10-09T03:57:17;16.60;99.90
7216;DHT22;3649;48.798;9.798;2023-10-09T03:59:47;16.60;99.90
7216;DHT22;3649;48.798;9.798;2023-10-09T04:02:15;16.60;99.90
7216;DHT22;3649;48.798;9.798;2023-10-09T04:04:43;16.60;99.90
7216;DHT22;3649;48.798;9.798;2023-10-09T04:07:15;16.60;99.90
7216;DHT22;3649;48.798;9.798;2023-10-09T04:09:44;16.60;99.90
7216;DHT22;3649;48.798;9.798;2023-10-09T04:12:15;16.60;99.90
7216;DHT22;3649;48.798;9.798;2023-10-09T04:14:52;16.60;99.90
7216;DHT22;3649;48.798;9.798;2023-10-09T04:17:24;16.60;99.90
7216;DHT22;3649;48.798;9.798;2023-10-09T04:19:51;16.60;99.90
7216;DHT22;3649;48.798;9.798;2023-10-09T04:22:51;16.60;99.90
7216;DHT22;3649;48.798;9.798;2023-10-09T04:25:21;16.60;99.90
7216;DHT22;3649;48.798;9.798;2023-10-09T04:28:09;16.50;99.90
7216;DHT22;3649;48.798;9.798;2023-10-09T04:30:39;16.50;99.90
7216;DHT22;3649;48.798;9.798;2023-10-09T04:33:32;16.60;99.90
7216;DHT22;3649;48.798;9.798;2023-10-09T04:36:03;16.60;99.90
7216;DHT22;3649;48.798;9.798;2023-10-09T04:39:02;16.60;99.90
7216;DHT22;3649;48.798;9.798;2023-10-09T04:41:33;16.60;99.90
7216;DHT22;3649;48.798;9.798;2023-10-09T04:44:20;16.60;99.90
7216;DHT22;3649;48.798;9.798;2023-10-09T04:46:51;16.50;99.90
7216;DHT22;3649;48.798;9.798;2023-10-09T04:49:41;16.50;99.90
7216;DHT22;3649;48.798;9.798;2023-10-09T04:52:17;16.50;99.90
7216;DHT22;3649;48.798;9.798;2023-10-09T04:54:57;16.70;99.90
7216;DHT22;3649;48.798;9.798;2023-10-09T04:57:44;16.50;99.90
7216;DHT22;3649;48.798;9.798;2023-10-09T05:00:18;16.50;99.90
7216;DHT22;3649;48.798;9.798;2023-10-09T05:03:00;16.50;99.90
7216;DHT22;3649;48.798;9.798;2023-10-09T05:05:38;16.40;99.90
7216;DHT22;3649;48.798;9.798;2023-10-09T05:08:27;16.40;99.90
7216;DHT22;3649;48.798;9.798;2023-10-09T05:11:02;16.50;99.90
7216;DHT22;3649;48.798;9.798;2023-10-09T05:13:36;16.50;99.90
7216;DHT22;3649;48.798;9.798;2023-10-09T05:16:18;16.50;99.90
7216;DHT22;3649;48.798;9.798;2023-10-09T05:18:47;16.50;99.90
7216;DHT22;3649;48.798;9.798;2023-10-09T05:21:34;16.50;99.90
7216;DHT22;3649;48.798;9.798;2023-10-09T05:24:22;16.30;99.90
7216;DHT22;3649;48.798;9.798;2023-10-09T05:26:50;16.50;99.90
7216;DHT22;3649;48.798;9.798;2023-10-09T05:29:25;16.50;99.90
7216;DHT22;3649;48.798;9.798;2023-10-09T05:31:55;16.50;99.90
7216;DHT22;3649;48.798;9.798;2023-10-09T05:34:32;16.60;99.90
7216;DHT22;3649;48.798;9.798;2023-10-09T05:37:18;16.60;99.90
7216;DHT22;3649;48.798;9.798;2023-10-09T05:39:57;16.50;99.90
7216;DHT22;3649;48.798;9.798;2023-10-09T05:42:34;16.60;99.90
7216;DHT22;3649;48.798;9.798;2023-10-09T05:45:04;16.50;99.90
7216;DHT22;3649;48.798;9.798;2023-10-09T05:47:44;16.50;99.90
7216;DHT22;3649;48.798;9.798;2023-10-09T05:50:35;16.50;99.90
7216;DHT22;3649;48.798;9.798;2023-10-09T05:53:04;16.50;99.90
7216;DHT22;3649;48.798;9.798;2023-10-09T05:55:54;16.60;99.90
7216;DHT22;3649;48.798;9.798;2023-10-09T05:58:39;16.60;99.90
7216;DHT22;3649;48.798;9.798;2023-10-09T06:01:29;16.50;99.90
7216;DHT22;3649;48.798;9.798;2023-10-09T06:04:14;16.60;99.90
7216;DHT22;3649;48.798;9.798;2023-10-09T06:06:46;16.50;99.90
7216;DHT22;3649;48.798;9.798;2023-10-09T06:09:14;16.60;99.90
7216;DHT22;3649;48.798;9.798;2023-10-09T06:11:46;16.80;99.90
7216;DHT22;3649;48.798;9.798;2023-10-09T06:14:23;16.60;99.90
7216;DHT22;3649;48.798;9.798;2023-10-09T06:16:57;16.60;99.90
7216;DHT22;3649;48.798;9.798;2023-10-09T06:19:25;16.50;99.90
7216;DHT22;3649;48.798;9.798;2023-10-09T06:21:57;16.70;99.90
7216;DHT22;3649;48.798;9.798;2023-10-09T06:24:40;16.70;99.90
7216;DHT22;3649;48.798;9.798;2023-10-09T06:27:22;16.60;99.90
7216;DHT22;3649;48.798;9.798;2023-10-09T06:29:58;16.60;99.90
7216;DHT22;3649;48.798;9.798;2023-10-09T06:32:44;16.60;99.90
7216;DHT22;3649;48.798;9.798;2023-10-09T06:35:18;16.70;99.90
7216;DHT22;3649;48.798;9.798;2023-10-09T06:37:50;16.70;99.90
7216;DHT22;3649;48.798;9.798;2023-10-09T06:40:31;16.70;99.90
7216;DHT22;3649;48.798;9.798;2023-10-09T06:43:17;16.70;99.90
7216;DHT22;3649;48.798;9.798;2023-10-09T06:45:44;16.80;99.90
7216;DHT22;3649;48.798;9.798;2023-10-09T06:48:13;16.80;99.90
7216;DHT22;3649;48.798;9.798;2023-10-09T06:51:02;16.80;99.90
7216;DHT22;3649;48.798;9.798;2023-10-09T06:53:48;16.80;99.90
7216;DHT22;3649;48.798;9.798;2023-10-09T06:56:28;16.90;99.90
7216;DHT22;3649;48.798;9.798;2023-10-09T06:59:00;16.90;99.90
7216;DHT22;3649;48.798;9.798;2023-10-09T07:01:51;16.90;99.90
7216;DHT22;3649;48.798;9.798;2023-10-09T07:04:36;16.90;99.90
7216;DHT22;3649;48.798;9.798;2023-10-09T07:07:03;16.90;99.90
7216;DHT22;3649;48.798;9.798;2023-10-09T07:09:40;16.90;99.90
7216;DHT22;3649;48.798;9.798;2023-10-09T07:12:10;16.90;99.90
7216;DHT22;3649;48.798;9.798;2023-10-09T07:14:47;16.90;99.90
7216;DHT22;3649;48.798;9.798;2023-10-09T07:17:14;17.00;99.90
7216;DHT22;3649;48.798;9.798;2023-10-09T07:19:55;16.90;99.90
7216;DHT22;3649;48.798;9.798;2023-10-09T07:22:22;16.90;99.90
7216;DHT22;3649;48.798;9.798;2023-10-09T07:24:50;17.00;99.90
7216;DHT22;3649;48.798;9.798;2023-10-09T07:27:27;16.90;99.90
7216;DHT22;3649;48.798;9.798;2023-10-09T07:30:17;17.00;99.90
7216;DHT22;3649;48.798;9.798;2023-10-09T07:32:59;17.10;99.90
7216;DHT22;3649;48.798;9.798;2023-10-09T07:35:48;17.10;99.90
7216;DHT22;3649;48.798;9.798;2023-10-09T07:38:20;17.20;99.90
7216;DHT22;3649;48.798;9.798;2023-10-09T07:40:48;17.20;99.90
7216;DHT22;3649;48.798;9.798;2023-10-09T07:43:36;17.30;99.90
7216;DHT22;3649;48.798;9.798;2023-10-09T07:46:08;17.30;99.90
7216;DHT22;3649;48.798;9.798;2023-10-09T07:49:03;17.40;99.90
7216;DHT22;3649;48.798;9.798;2023-10-09T07:51:37;17.50;99.90
7216;DHT22;3649;48.798;9.798;2023-10-09T07:54:04;17.50;99.90
7216;DHT22;3649;48.798;9.798;2023-10-09T07:56:35;17.50;99.90
7216;DHT22;3649;48.798;9.798;2023-10-09T07:59:13;17.60;99.90
7216;DHT22;3649;48.798;9.798;2023-10-09T08:01:42;17.70;99.90
7216;DHT22;3649;48.798;9.798;2023-10-09T08:04:26;17.80;99.90
7216;DHT22;3649;48.798;9.798;2023-10-09T08:07:25;17.80;99.90
7216;DHT22;3649;48.798;9.798;2023-10-09T08:10:12;17.80;99.90
7216;DHT22;3649;48.798;9.798;2023-10-09T08:12:45;17.90;99.90
7216;DHT22;3649;48.798;9.798;2023-10-09T08:15:17;18.00;99.90
7216;DHT22;3649;48.798;9.798;2023-10-09T08:17:53;18.00;99.90
7216;DHT22;3649;48.798;9.798;2023-10-09T08:20:27;18.20;99.90
7216;DHT22;3649;48.798;9.798;2023-10-09T08:23:02;18.30;99.90
7216;DHT22;3649;48.798;9.798;2023-10-09T08:25:31;18.40;99.90
7216;DHT22;3649;48.798;9.798;2023-10-09T08:28:00;18.50;99.90
7216;DHT22;3649;48.798;9.798;2023-10-09T08:30:46;18.60;99.90
7216;DHT22;3649;48.798;9.798;2023-10-09T08:33:36;18.60;99.90
7216;DHT22;3649;48.798;9.798;2023-10-09T08:36:27;18.70;99.90
7216;DHT22;3649;48.798;9.798;2023-10-09T08:39:05;18.70;99.90
7216;DHT22;3649;48.798;9.798;2023-10-09T08:41:44;18.70;99.90
7216;DHT22;3649;48.798;9.798;2023-10-09T08:44:12;18.80;99.90
7216;DHT22;3649;48.798;9.798;2023-10-09T08:46:42;18.80;99.90
7216;DHT22;3649;48.798;9.798;2023-10-09T08:49:09;18.80;99.90
7216;DHT22;3649;48.798;9.798;2023-10-09T08:51:37;18.90;99.90
7216;DHT22;3649;48.798;9.798;2023-10-09T08:54:07;19.00;99.90
7216;DHT22;3649;48.798;9.798;2023-10-09T08:56:39;19.00;99.90
7216;DHT22;3649;48.798;9.798;2023-10-09T08:59:17;19.00;99.90
7216;DHT22;3649;48.798;9.798;2023-10-09T09:01:46;18.30;99.90
7216;DHT22;3649;48.798;9.798;2023-10-09T09:07:04;19.20;99.90
7216;DHT22;3649;48.798;9.798;2023-10-09T09:09:32;19.20;99.90
7216;DHT22;3649;48.798;9.798;2023-10-09T09:12:00;19.30;99.90
7216;DHT22;3649;48.798;9.798;2023-10-09T09:14:37;19.30;99.90
7216;DHT22;3649;48.798;9.798;2023-10-09T09:17:06;19.30;99.90
7216;DHT22;3649;48.798;9.798;2023-10-09T09:19:38;19.40;99.90
7216;DHT22;3649;48.798;9.798;2023-10-09T09:22:05;19.40;99.90
7216;DHT22;3649;48.798;9.798;2023-10-09T09:24:41;19.40;99.90
7216;DHT22;3649;48.798;9.798;2023-10-09T09:27:46;19.50;99.90
7216;DHT22;3649;48.798;9.798;2023-10-09T09:30:24;19.50;99.90
7216;DHT22;3649;48.798;9.798;2023-10-09T09:32:53;19.50;99.90
7216;DHT22;3649;48.798;9.798;2023-10-09T09:35:39;19.60;99.90
7216;DHT22;3649;48.798;9.798;2023-10-09T09:38:06;19.60;99.90
7216;DHT22;3649;48.798;9.798;2023-10-09T09:40:34;19.70;99.90
7216;DHT22;3649;48.798;9.798;2023-10-09T09:43:08;19.70;99.90
7216;DHT22;3649;48.798;9.798;2023-10-09T09:45:49;19.80;99.90
7216;DHT22;3649;48.798;9.798;2023-10-09T09:48:19;19.80;99.90
7216;DHT22;3649;48.798;9.798;2023-10-09T09:50:46;19.90;99.90
7216;DHT22;3649;48.798;9.798;2023-10-09T09:53:20;20.00;99.90
7216;DHT22;3649;48.798;9.798;2023-10-09T09:55:51;20.00;99.90
7216;DHT22;3649;48.798;9.798;2023-10-09T09:58:24;20.10;99.90
7216;DHT22;3649;48.798;9.798;2023-10-09T10:01:03;20.10;99.90
7216;DHT22;3649;48.798;9.798;2023-10-09T10:03:53;20.10;99.90
7216;DHT22;3649;48.798;9.798;2023-10-09T10:06:24;20.10;99.90
7216;DHT22;3649;48.798;9.798;2023-10-09T10:08:55;20.10;99.90
7216;DHT22;3649;48.798;9.798;2023-10-09T10:11:47;20.10;99.90
7216;DHT22;3649;48.798;9.798;2023-10-09T10:14:21;20.20;99.90
7216;DHT22;3649;48.798;9.798;2023-10-09T10:17:05;20.20;99.90
7216;DHT22;3649;48.798;9.798;2023-10-09T10:22:43;20.20;99.90
7216;DHT22;3649;48.798;9.798;2023-10-09T10:28:32;20.30;99.90
7216;DHT22;3649;48.798;9.798;2023-10-09T10:31:06;20.30;99.90
7216;DHT22;3649;48.798;9.798;2023-10-09T10:36:21;20.50;99.90
7216;DHT22;3649;48.798;9.798;2023-10-09T10:38:59;20.50;99.90
7216;DHT22;3649;48.798;9.798;2023-10-09T10:41:58;20.50;99.90
7216;DHT22;3649;48.798;9.798;2023-10-09T10:44:33;20.50;99.90
7216;DHT22;3649;48.798;9.798;2023-10-09T10:47:10;20.50;99.90
7216;DHT22;3649;48.798;9.798;2023-10-09T10:50:02;20.60;99.90
7216;DHT22;3649;48.798;9.798;2023-10-09T10:53:12;20.60;99.90
7216;DHT22;3649;48.798;9.798;2023-10-09T10:56:01;20.60;99.90
7216;DHT22;3649;48.798;9.798;2023-10-09T10:58:55;20.60;99.90
7216;DHT22;3649;48.798;9.798;2023-10-09T11:01:22;20.60;99.90
7216;DHT22;3649;48.798;9.798;2023-10-09T11:03:54;20.60;99.90
7216;DHT22;3649;48.798;9.798;2023-10-09T11:06:39;20.60;99.90
7216;DHT22;3649;48.798;9.798;2023-10-09T11:09:09;20.60;99.90
7216;DHT22;3649;48.798;9.798;2023-10-09T11:12:16;20.60;99.90
7216;DHT22;3649;48.798;9.798;2023-10-09T11:14:49;20.60;99.90
7216;DHT22;3649;48.798;9.798;2023-10-09T11:17:36;20.60;99.90
7216;DHT22;3649;48.798;9.798;2023-10-09T11:20:06;20.60;99.90
7216;DHT22;3649;48.798;9.798;2023-10-09T11:22:53;20.60;99.90
7216;DHT22;3649;48.798;9.798;2023-10-09T11:25:39;20.60;99.90
7216;DHT22;3649;48.798;9.798;2023-10-09T11:28:18;20.60;99.90
7216;DHT22;3649;48.798;9.798;2023-10-09T11:31:11;20.60;99.90
7216;DHT22;3649;48.798;9.798;2023-10-09T11:33:45;20.60;99.90
7216;DHT22;3649;48.798;9.798;2023-10-09T11:36:12;20.60;99.90
7216;DHT22;3649;48.798;9.798;2023-10-09T11:38:39;20.60;99.90
7216;DHT22;3649;48.798;9.798;2023-10-09T11:41:16;20.60;99.90
7216;DHT22;3649;48.798;9.798;2023-10-09T11:43:53;20.70;99.90
7216;DHT22;3649;48.798;9.798;2023-10-09T11:46:21;20.60;99.90
7216;DHT22;3649;48.798;9.798;2023-10-09T11:49:09;20.60;99.90
7216;DHT22;3649;48.798;9.798;2023-10-09T11:51:53;20.60;99.90
7216;DHT22;3649;48.798;9.798;2023-10-09T11:54:40;20.70;99.90
7216;DHT22;3649;48.798;9.798;2023-10-09T11:57:07;20.70;99.90
7216;DHT22;3649;48.798;9.798;2023-10-09T11:59:34;20.70;99.90
7216;DHT22;3649;48.798;9.798;2023-10-09T12:02:08;20.70;99.90
7216;DHT22;3649;48.798;9.798;2023-10-09T12:04:40;20.80;99.90
7216;DHT22;3649;48.798;9.798;2023-10-09T12:07:12;20.70;99.90
7216;DHT22;3649;48.798;9.798;2023-10-09T12:09:40;20.80;99.90
7216;DHT22;3649;48.798;9.798;2023-10-09T12:12:08;20.70;99.90
7216;DHT22;3649;48.798;9.798;2023-10-09T12:14:38;20.70;99.90
7216;DHT22;3649;48.798;9.798;2023-10-09T12:17:07;20.70;99.90
7216;DHT22;3649;48.798;9.798;2023-10-09T12:19:36;20.70;99.90
7216;DHT22;3649;48.798;9.798;2023-10-09T12:22:06;20.70;99.90
7216;DHT22;3649;48.798;9.798;2023-10-09T12:24:33;20.70;99.90
7216;DHT22;3649;48.798;9.798;2023-10-09T12:27:00;20.70;99.90
7216;DHT22;3649;48.798;9.798;2023-10-09T12:29:27;20.70;99.90
7216;DHT22;3649;48.798;9.798;2023-10-09T12:31:57;20.70;99.90
7216;DHT22;3649;48.798;9.798;2023-10-09T12:34:26;20.70;99.90
7216;DHT22;3649;48.798;9.798;2023-10-09T12:36:54;20.70;99.90
7216;DHT22;3649;48.798;9.798;2023-10-09T12:39:21;20.80;99.90
7216;DHT22;3649;48.798;9.798;2023-10-09T12:41:48;20.80;99.90
7216;DHT22;3649;48.798;9.798;2023-10-09T12:44:20;20.80;99.90
7216;DHT22;3649;48.798;9.798;2023-10-09T12:46:47;20.80;99.90
7216;DHT22;3649;48.798;9.798;2023-10-09T12:49:21;20.80;99.90
7216;DHT22;3649;48.798;9.798;2023-10-09T12:51:52;20.80;99.90
7216;DHT22;3649;48.798;9.798;2023-10-09T12:54:20;20.80;99.90
7216;DHT22;3649;48.798;9.798;2023-10-09T12:56:49;20.90;99.90
7216;DHT22;3649;48.798;9.798;2023-10-09T12:59:16;20.90;99.90
7216;DHT22;3649;48.798;9.798;2023-10-09T13:01:46;20.90;99.90
7216;DHT22;3649;48.798;9.798;2023-10-09T13:04:19;20.90;99.90
7216;DHT22;3649;48.798;9.798;2023-10-09T13:06:49;21.00;99.90
7216;DHT22;3649;48.798;9.798;2023-10-09T13:09:21;21.10;99.90
7216;DHT22;3649;48.798;9.798;2023-10-09T13:12:11;21.20;99.90
7216;DHT22;3649;48.798;9.798;2023-10-09T13:14:45;21.20;99.90
7216;DHT22;3649;48.798;9.798;2023-10-09T13:17:14;21.30;99.90
7216;DHT22;3649;48.798;9.798;2023-10-09T13:19:41;21.30;99.90
7216;DHT22;3649;48.798;9.798;2023-10-09T13:22:11;21.40;99.90
7216;DHT22;3649;48.798;9.798;2023-10-09T13:24:40;21.50;99.90
7216;DHT22;3649;48.798;9.798;2023-10-09T13:27:08;21.50;99.90
7216;DHT22;3649;48.798;9.798;2023-10-09T13:29:38;21.50;99.90
7216;DHT22;3649;48.798;9.798;2023-10-09T13:32:07;21.60;99.90
7216;DHT22;3649;48.798;9.798;2023-10-09T13:34:42;21.60;99.90
7216;DHT22;3649;48.798;9.798;2023-10-09T13:37:14;21.70;99.90
7216;DHT22;3649;48.798;9.798;2023-10-09T13:39:48;21.60;99.90
7216;DHT22;3649;48.798;9.798;2023-10-09T13:42:23;21.70;99.90
7216;DHT22;3649;48.798;9.798;2023-10-09T13:44:53;21.70;99.90
7216;DHT22;3649;48.798;9.798;2023-10-09T13:47:20;21.80;99.90
7216;DHT22;3649;48.798;9.798;2023-10-09T13:49:48;21.90;99.90
7216;DHT22;3649;48.798;9.798;2023-10-09T13:52:20;21.90;99.90
7216;DHT22;3649;48.798;9.798;2023-10-09T13:54:49;22.00;99.90
7216;DHT22;3649;48.798;9.798;2023-10-09T13:57:20;21.90;99.90
7216;DHT22;3649;48.798;9.798;2023-10-09T13:59:49;22.00;99.90
7216;DHT22;3649;48.798;9.798;2023-10-09T14:02:17;22.10;99.90
7216;DHT22;3649;48.798;9.798;2023-10-09T14:04:47;22.10;99.90
7216;DHT22;3649;48.798;9.798;2023-10-09T14:07:15;22.10;99.90
7216;DHT22;3649;48.798;9.798;2023-10-09T14:09:47;22.20;99.90
7216;DHT22;3649;48.798;9.798;2023-10-09T14:12:34;22.30;99.90
7216;DHT22;3649;48.798;9.798;2023-10-09T14:15:07;22.30;99.90
7216;DHT22;3649;48.798;9.798;2023-10-09T14:17:38;22.30;99.90
7216;DHT22;3649;48.798;9.798;2023-10-09T14:20:09;22.40;99.90
7216;DHT22;3649;48.798;9.798;2023-10-09T14:22:55;22.50;99.90
7216;DHT22;3649;48.798;9.798;2023-10-09T14:25:22;22.40;99.90
7216;DHT22;3649;48.798;9.798;2023-10-09T14:27:50;22.30;99.90
7216;DHT22;3649;48.798;9.798;2023-10-09T14:30:20;22.40;99.90
7216;DHT22;3649;48.798;9.798;2023-10-09T14:32:58;22.50;99.90
7216;DHT22;3649;48.798;9.798;2023-10-09T14:35:25;22.60;99.90
7216;DHT22;3649;48.798;9.798;2023-10-09T14:37:57;22.60;99.90
7216;DHT22;3649;48.798;9.798;2023-10-09T14:40:24;22.50;99.90
7216;DHT22;3649;48.798;9.798;2023-10-09T14:43:00;22.50;99.90
7216;DHT22;3649;48.798;9.798;2023-10-09T14:45:27;22.40;99.90
7216;DHT22;3649;48.798;9.798;2023-10-09T14:47:55;22.20;99.90
7216;DHT22;3649;48.798;9.798;2023-10-09T14:50:22;22.10;99.90
7216;DHT22;3649;48.798;9.798;2023-10-09T14:52:50;22.00;99.90
7216;DHT22;3649;48.798;9.798;2023-10-09T14:55:18;21.80;99.90
7216;DHT22;3649;48.798;9.798;2023-10-09T14:57:48;21.80;99.90
7216;DHT22;3649;48.798;9.798;2023-10-09T15:00:19;21.70;99.90
7216;DHT22;3649;48.798;9.798;2023-10-09T15:02:50;21.70;99.90
7216;DHT22;3649;48.798;9.798;2023-10-09T15:05:18;21.60;99.90
7216;DHT22;3649;48.798;9.798;2023-10-09T15:07:45;21.60;99.90
7216;DHT22;3649;48.798;9.798;2023-10-09T15:10:13;21.50;99.90
7216;DHT22;3649;48.798;9.798;2023-10-09T15:12:45;21.50;99.90
7216;DHT22;3649;48.798;9.798;2023-10-09T15:15:15;21.50;99.90
7216;DHT22;3649;48.798;9.798;2023-10-09T15:17:44;21.50;99.90
7216;DHT22;3649;48.798;9.798;2023-10-09T15:20:14;21.40;99.90
7216;DHT22;3649;48.798;9.798;2023-10-09T15:22:41;21.40;99.90
7216;DHT22;3649;48.798;9.798;2023-10-09T15:25:10;21.30;99.90
7216;DHT22;3649;48.798;9.798;2023-10-09T15:27:43;21.30;99.90
7216;DHT22;3649;48.798;9.798;2023-10-09T15:30:10;21.30;99.90
7216;DHT22;3649;48.798;9.798;2023-10-09T15:32:41;21.30;99.90
7216;DHT22;3649;48.798;9.798;2023-10-09T15:35:09;21.30;99.90
7216;DHT22;3649;48.798;9.798;2023-10-09T15:37:37;21.30;99.90
7216;DHT22;3649;48.798;9.798;2023-10-09T15:40:05;21.30;99.90
7216;DHT22;3649;48.798;9.798;2023-10-09T15:42:32;21.20;99.90
7216;DHT22;3649;48.798;9.798;2023-10-09T15:45:03;21.30;99.90
7216;DHT22;3649;48.798;9.798;2023-10-09T15:47:33;21.20;99.90
7216;DHT22;3649;48.798;9.798;2023-10-09T15:50:03;21.20;99.90
7216;DHT22;3649;48.798;9.798;2023-10-09T15:52:30;21.20;99.90
7216;DHT22;3649;48.798;9.798;2023-10-09T15:54:57;21.20;99.90
7216;DHT22;3649;48.798;9.798;2023-10-09T15:57:24;21.20;99.90
7216;DHT22;3649;48.798;9.798;2023-10-09T15:59:51;21.10;99.90
7216;DHT22;3649;48.798;9.798;2023-10-09T16:02:18;21.10;99.90
7216;DHT22;3649;48.798;9.798;2023-10-09T16:04:45;21.10;99.90
7216;DHT22;3649;48.798;9.798;2023-10-09T16:07:12;21.10;99.90
7216;DHT22;3649;48.798;9.798;2023-10-09T16:09:41;21.10;99.90
7216;DHT22;3649;48.798;9.798;2023-10-09T16:12:08;21.10;99.90
7216;DHT22;3649;48.798;9.798;2023-10-09T16:14:36;21.10;99.90
7216;DHT22;3649;48.798;9.798;2023-10-09T16:17:03;21.10;99.90
7216;DHT22;3649;48.798;9.798;2023-10-09T16:19:33;21.10;99.90
7216;DHT22;3649;48.798;9.798;2023-10-09T16:22:04;21.10;99.90
7216;DHT22;3649;48.798;9.798;2023-10-09T16:24:31;21.00;99.90
7216;DHT22;3649;48.798;9.798;2023-10-09T16:27:09;21.00;99.90
7216;DHT22;3649;48.798;9.798;2023-10-09T16:29:36;21.00;99.90
7216;DHT22;3649;48.798;9.798;2023-10-09T16:32:06;21.00;99.90
7216;DHT22;3649;48.798;9.798;2023-10-09T16:34:35;21.00;99.90
7216;DHT22;3649;48.798;9.798;2023-10-09T16:37:05;21.00;99.90
7216;DHT22;3649;48.798;9.798;2023-10-09T16:39:33;21.00;99.90
7216;DHT22;3649;48.798;9.798;2023-10-09T16:42:05;20.90;99.90
7216;DHT22;3649;48.798;9.798;2023-10-09T16:44:36;20.90;99.90
7216;DHT22;3649;48.798;9.798;2023-10-09T16:47:03;20.90;99.90
7216;DHT22;3649;48.798;9.798;2023-10-09T16:49:31;20.90;99.90
7216;DHT22;3649;48.798;9.798;2023-10-09T16:51:58;20.90;99.90
7216;DHT22;3649;48.798;9.798;2023-10-09T16:54:25;20.90;99.90
7216;DHT22;3649;48.798;9.798;2023-10-09T16:56:53;20.80;99.90
7216;DHT22;3649;48.798;9.798;2023-10-09T16:59:23;20.80;99.90